EFW74JG EGKK-LEPA
Flight info
| Callsign | EFW74JG |
|---|---|
| Flight time | N/A |
| Altitude | 33000 |
| Route | BOGNA L612 BENBO Y47 DRAKE L151 SITET UN859 SOPIL DCT BALAN DCT EVPOK DCT NARAK DCT GAI DCT LOMRA DCT ROCAN DCT IBRAP DCT LUKEV N13 LORES |
| Aircraft | A320/M-SDE3FGHIRWY/LB1 |
Departure
| Time | 2026-04-14 17:19 |
|---|---|
| Airport | London Gatwick Airport (EGKK) |
Arrival
| Time | N/A |
|---|---|
| Airport | Palma de Mallorca Airport (LEPA) |
| Time | Latitude | Longitude | Altitude | Speed | Heading |
|---|---|---|---|---|---|
| 2026-04-14 16:35 | 51.15494 | -0.16906 | 205 ft | 0 kts | 349° |
| 2026-04-14 17:00 | 51.15493 | -0.16906 | 205 ft | 1 kts | 349° |
| 2026-04-14 17:01 | 51.15477 | -0.16901 | 215 ft | 3 kts | 349° |
| 2026-04-14 17:01 | 51.15457 | -0.16894 | 217 ft | 3 kts | 350° |
| 2026-04-14 17:01 | 51.15445 | -0.16893 | 210 ft | 3 kts | 52° |
| 2026-04-14 17:01 | 51.15438 | -0.16917 | 213 ft | 2 kts | 76° |
| 2026-04-14 17:02 | 51.15435 | -0.16937 | 211 ft | 3 kts | 77° |
| 2026-04-14 17:02 | 51.15432 | -0.16954 | 211 ft | 0 kts | 77° |
| 2026-04-14 17:04 | 51.15434 | -0.16943 | 212 ft | 2 kts | 77° |
| 2026-04-14 17:05 | 51.15440 | -0.16902 | 215 ft | 5 kts | 77° |
| 2026-04-14 17:05 | 51.15449 | -0.16833 | 208 ft | 8 kts | 77° |
| 2026-04-14 17:05 | 51.15441 | -0.16739 | 210 ft | 10 kts | 137° |
| 2026-04-14 17:05 | 51.15369 | -0.16705 | 205 ft | 12 kts | 167° |
| 2026-04-14 17:06 | 51.15280 | -0.16667 | 211 ft | 10 kts | 167° |
| 2026-04-14 17:06 | 51.15250 | -0.16656 | 205 ft | 6 kts | 168° |
| 2026-04-14 17:06 | 51.15241 | -0.16653 | 208 ft | 0 kts | 168° |
| 2026-04-14 17:17 | 51.15228 | -0.16648 | 213 ft | 4 kts | 168° |
| 2026-04-14 17:17 | 51.15166 | -0.16641 | 205 ft | 14 kts | 198° |
| 2026-04-14 17:17 | 51.15130 | -0.16742 | 205 ft | 3 kts | 258° |
| 2026-04-14 17:17 | 51.15127 | -0.16764 | 214 ft | 0 kts | 258° |
| 2026-04-14 17:18 | 51.15127 | -0.16765 | 214 ft | 0 kts | 258° |
| 2026-04-14 17:18 | 51.15103 | -0.16940 | 207 ft | 52 kts | 257° |
| 2026-04-14 17:18 | 51.14945 | -0.18002 | 212 ft | 138 kts | 257° |
| 2026-04-14 17:19 | 51.14699 | -0.19699 | 780 ft | 152 kts | 255° |
| 2026-04-14 17:19 | 51.14584 | -0.20789 | 1489 ft | 150 kts | 253° |
| 2026-04-14 17:19 | 51.14367 | -0.22468 | 2420 ft | 155 kts | 249° |
| 2026-04-14 17:19 | 51.14175 | -0.24240 | 2885 ft | 170 kts | 250° |
| 2026-04-14 17:20 | 51.13737 | -0.25992 | 3460 ft | 173 kts | 239° |
| 2026-04-14 17:20 | 51.13259 | -0.27770 | 4124 ft | 175 kts | 244° |
| 2026-04-14 17:20 | 51.12807 | -0.29625 | 4752 ft | 182 kts | 250° |
| 2026-04-14 17:20 | 51.12534 | -0.31768 | 4981 ft | 212 kts | 257° |
| 2026-04-14 17:21 | 51.12326 | -0.34131 | 5011 ft | 221 kts | 258° |
| 2026-04-14 17:21 | 51.12108 | -0.36562 | 5031 ft | 222 kts | 257° |
| 2026-04-14 17:21 | 51.11847 | -0.39011 | 5598 ft | 224 kts | 252° |
| 2026-04-14 17:21 | 51.11098 | -0.41111 | 6514 ft | 221 kts | 219° |
| 2026-04-14 17:22 | 51.09697 | -0.42054 | 7317 ft | 226 kts | 185° |
| 2026-04-14 17:22 | 51.08111 | -0.41823 | 8167 ft | 231 kts | 176° |
| 2026-04-14 17:22 | 51.06451 | -0.41553 | 8805 ft | 247 kts | 178° |
| 2026-04-14 17:22 | 51.04660 | -0.41335 | 9304 ft | 267 kts | 178° |
| 2026-04-14 17:23 | 51.02776 | -0.41125 | 10049 ft | 275 kts | 178° |
| 2026-04-14 17:23 | 51.00846 | -0.40905 | 10799 ft | 280 kts | 178° |
| 2026-04-14 17:23 | 50.98887 | -0.40673 | 11562 ft | 285 kts | 178° |
| 2026-04-14 17:23 | 50.96864 | -0.40428 | 12337 ft | 289 kts | 178° |
| 2026-04-14 17:24 | 50.94812 | -0.40174 | 13077 ft | 295 kts | 178° |
| 2026-04-14 17:24 | 50.92744 | -0.39913 | 13838 ft | 300 kts | 178° |
| 2026-04-14 17:24 | 50.90644 | -0.39644 | 14500 ft | 305 kts | 178° |
| 2026-04-14 17:24 | 50.88513 | -0.39372 | 15125 ft | 310 kts | 178° |
| 2026-04-14 17:25 | 50.86340 | -0.39098 | 15742 ft | 316 kts | 178° |
| 2026-04-14 17:25 | 50.84139 | -0.38592 | 16369 ft | 324 kts | 168° |
| 2026-04-14 17:25 | 50.82004 | -0.37314 | 16945 ft | 334 kts | 155° |
| 2026-04-14 17:25 | 50.80010 | -0.35367 | 17105 ft | 338 kts | 149° |
| 2026-04-14 17:26 | 50.78018 | -0.33287 | 17138 ft | 339 kts | 149° |
| 2026-04-14 17:26 | 50.76050 | -0.31235 | 17139 ft | 338 kts | 149° |
| 2026-04-14 17:26 | 50.74083 | -0.29194 | 17423 ft | 341 kts | 149° |
| 2026-04-14 17:26 | 50.72080 | -0.27120 | 18105 ft | 345 kts | 149° |
| 2026-04-14 17:27 | 50.70060 | -0.25032 | 18693 ft | 349 kts | 149° |
| 2026-04-14 17:27 | 50.67978 | -0.22870 | 18871 ft | 369 kts | 149° |
| 2026-04-14 17:27 | 50.65786 | -0.20575 | 19034 ft | 386 kts | 148° |
| 2026-04-14 17:27 | 50.63534 | -0.18202 | 19461 ft | 393 kts | 148° |
| 2026-04-14 17:28 | 50.61250 | -0.15796 | 20004 ft | 397 kts | 148° |
| 2026-04-14 17:28 | 50.58909 | -0.13336 | 20578 ft | 401 kts | 148° |
| 2026-04-14 17:28 | 50.56568 | -0.10882 | 21139 ft | 405 kts | 148° |
| 2026-04-14 17:28 | 50.54208 | -0.08418 | 21686 ft | 409 kts | 148° |
| 2026-04-14 17:29 | 50.51828 | -0.05944 | 22228 ft | 413 kts | 148° |
| 2026-04-14 17:29 | 50.49388 | -0.03539 | 22761 ft | 415 kts | 154° |
| 2026-04-14 17:29 | 50.46715 | -0.01777 | 23298 ft | 416 kts | 166° |
| 2026-04-14 17:29 | 50.43887 | -0.00829 | 23808 ft | 416 kts | 177° |
| 2026-04-14 17:30 | 50.40961 | -0.00742 | 24225 ft | 416 kts | 188° |
| 2026-04-14 17:30 | 50.38116 | -0.01490 | 24663 ft | 415 kts | 197° |
| 2026-04-14 17:30 | 50.35298 | -0.02519 | 25115 ft | 417 kts | 197° |
| 2026-04-14 17:30 | 50.32458 | -0.03536 | 25573 ft | 420 kts | 197° |
| 2026-04-14 17:31 | 50.29593 | -0.04550 | 26015 ft | 423 kts | 197° |
| 2026-04-14 17:31 | 50.26715 | -0.05565 | 26445 ft | 426 kts | 197° |
| 2026-04-14 17:31 | 50.23763 | -0.06259 | 26866 ft | 433 kts | 187° |
| 2026-04-14 17:31 | 50.20718 | -0.06129 | 27274 ft | 442 kts | 176° |
| 2026-04-14 17:32 | 50.17626 | -0.05103 | 27652 ft | 450 kts | 165° |
| 2026-04-14 17:32 | 50.14686 | -0.03268 | 28043 ft | 455 kts | 158° |
| 2026-04-14 17:32 | 50.11779 | -0.01239 | 28435 ft | 458 kts | 159° |
| 2026-04-14 17:32 | 50.08749 | 0.00511 | 28766 ft | 460 kts | 167° |
| 2026-04-14 17:33 | 50.05633 | 0.01763 | 29092 ft | 464 kts | 169° |
| 2026-04-14 17:33 | 50.02493 | 0.02989 | 29459 ft | 467 kts | 169° |
| 2026-04-14 17:33 | 49.99330 | 0.04217 | 29832 ft | 470 kts | 169° |
| 2026-04-14 17:34 | 49.92893 | 0.06724 | 30504 ft | 477 kts | 169° |
| 2026-04-14 17:34 | 49.89676 | 0.07986 | 30813 ft | 479 kts | 169° |
| 2026-04-14 17:34 | 49.86429 | 0.09267 | 31113 ft | 482 kts | 169° |
| 2026-04-14 17:34 | 49.83169 | 0.10555 | 31425 ft | 485 kts | 169° |
| 2026-04-14 17:35 | 49.79888 | 0.11844 | 31723 ft | 488 kts | 169° |
| 2026-04-14 17:35 | 49.76590 | 0.13133 | 32124 ft | 488 kts | 169° |
| 2026-04-14 17:35 | 49.73297 | 0.14414 | 32539 ft | 488 kts | 169° |
| 2026-04-14 17:35 | 49.69997 | 0.15695 | 32932 ft | 489 kts | 169° |
| 2026-04-14 17:36 | 49.66696 | 0.16975 | 33110 ft | 489 kts | 169° |
| 2026-04-14 17:36 | 49.63436 | 0.18265 | 33139 ft | 477 kts | 169° |
| 2026-04-14 17:36 | 49.60247 | 0.19554 | 33165 ft | 472 kts | 169° |
| 2026-04-14 17:37 | 49.54937 | 0.21715 | 33169 ft | 470 kts | 169° |
| 2026-04-14 17:37 | 49.48606 | 0.24274 | 33165 ft | 470 kts | 168° |
| 2026-04-14 17:38 | 49.42275 | 0.26812 | 33159 ft | 470 kts | 169° |
| 2026-04-14 17:38 | 49.35975 | 0.29315 | 33159 ft | 470 kts | 169° |